createdAt,value
2022-09-13T00:01:34.575Z,51.23
2022-09-13T00:04:20.429Z,51.22
2022-09-13T00:07:06.313Z,51.67
2022-09-13T00:09:52.154Z,51.59
2022-09-13T00:12:38.139Z,51.53
2022-09-13T00:15:24.211Z,51.79
2022-09-13T00:18:10.164Z,51.80
2022-09-13T00:21:17.291Z,51.99
2022-09-13T00:24:03.214Z,52.18
2022-09-13T00:26:49.104Z,52.48
2022-09-13T00:29:34.879Z,52.06
2022-09-13T00:32:20.818Z,52.19
2022-09-13T00:35:07.801Z,52.37
2022-09-13T00:37:53.725Z,52.21
2022-09-13T00:40:39.621Z,52.48
2022-09-13T00:43:48.558Z,52.58
2022-09-13T00:46:42.728Z,52.31
2022-09-13T00:49:39.474Z,52.35
2022-09-13T00:52:27.641Z,52.61
2022-09-13T00:55:20.182Z,52.25
2022-09-13T00:58:09.655Z,52.23
2022-09-13T01:00:58.609Z,52.35
2022-09-13T01:03:45.093Z,52.11
2022-09-13T01:06:34.519Z,52.22
2022-09-13T01:09:20.540Z,51.94
2022-09-13T01:12:48.440Z,52.00
2022-09-13T01:15:34.493Z,51.92
2022-09-13T01:18:20.729Z,52.24
2022-09-13T01:21:31.501Z,52.42
2022-09-13T01:24:29.908Z,52.17
2022-09-13T01:27:30.306Z,52.84
2022-09-13T01:30:24.285Z,52.47
2022-09-13T01:33:49.425Z,52.62
2022-09-13T01:36:49.621Z,52.45
2022-09-13T01:39:59.057Z,52.73
2022-09-13T01:43:03.370Z,52.53
2022-09-13T01:46:21.075Z,52.68
2022-09-13T01:49:18.869Z,52.78
2022-09-13T01:52:18.656Z,52.94
2022-09-13T01:55:23.387Z,52.85
2022-09-13T01:58:27.558Z,52.88
2022-09-13T02:01:21.751Z,52.98
2022-09-13T02:04:18.397Z,52.85
2022-09-13T02:07:14.652Z,52.89
2022-09-13T02:10:06.630Z,53.05
2022-09-13T02:12:53.485Z,52.54
2022-09-13T02:15:44.108Z,52.63
2022-09-13T02:18:40.463Z,52.74
2022-09-13T02:21:29.956Z,52.69
2022-09-13T02:24:23.641Z,52.70
2022-09-13T02:27:13.165Z,52.75
2022-09-13T02:30:04.229Z,52.86
2022-09-13T02:32:58.170Z,52.81
2022-09-13T02:36:16.833Z,53.13
2022-09-13T02:39:10.467Z,54.10
2022-09-13T02:42:02.688Z,54.20
2022-09-13T02:44:51.946Z,53.73
2022-09-13T02:47:57.458Z,53.45
2022-09-13T02:50:56.829Z,53.96
2022-09-13T02:53:56.023Z,53.88
2022-09-13T02:56:59.292Z,53.70
2022-09-13T02:59:47.208Z,54.00
2022-09-13T03:02:34.491Z,53.85
2022-09-13T03:05:20.644Z,53.64
2022-09-13T03:08:10.193Z,53.65
2022-09-13T03:11:18.710Z,53.56
2022-09-13T03:14:16.900Z,53.68
2022-09-13T03:17:46.324Z,53.79
2022-09-13T03:20:53.281Z,54.08
2022-09-13T03:23:44.928Z,54.07
2022-09-13T03:26:52.859Z,53.55
2022-09-13T03:29:54.453Z,53.91
2022-09-13T03:33:17.873Z,53.82
2022-09-13T03:36:25.484Z,54.02
2022-09-13T03:39:20.647Z,53.98
2022-09-13T03:42:16.449Z,54.03
2022-09-13T03:45:03.832Z,53.69
2022-09-13T03:47:50.599Z,54.09
2022-09-13T03:50:36.866Z,54.15
2022-09-13T03:53:27.736Z,54.24
2022-09-13T03:56:15.694Z,54.21
2022-09-13T03:59:01.621Z,54.58
2022-09-13T04:01:49.005Z,54.50
2022-09-13T04:04:35.242Z,54.39
2022-09-13T04:07:23.900Z,54.44
2022-09-13T04:10:13.517Z,54.49
2022-09-13T04:13:00.504Z,54.22
2022-09-13T04:15:46.385Z,54.35
2022-09-13T04:18:32.549Z,54.54
2022-09-13T04:21:18.864Z,54.61
2022-09-13T04:24:04.944Z,54.68
2022-09-13T04:26:51.558Z,54.49
2022-09-13T04:29:37.470Z,54.58
2022-09-13T04:32:23.512Z,54.66
2022-09-13T04:35:09.817Z,54.75
2022-09-13T04:37:57.960Z,54.89
2022-09-13T04:40:44.016Z,54.67
2022-09-13T04:43:30.151Z,54.73
2022-09-13T04:46:16.587Z,55.08
2022-09-13T04:49:02.444Z,54.92
2022-09-13T04:51:48.483Z,54.87
2022-09-13T04:54:34.552Z,55.17
2022-09-13T04:57:20.577Z,54.86
2022-09-13T05:00:07.390Z,54.96
2022-09-13T05:02:56.735Z,55.09
2022-09-13T05:05:42.591Z,55.18
2022-09-13T05:08:28.468Z,55.04
2022-09-13T05:11:14.460Z,55.17
2022-09-13T05:14:01.233Z,55.08
2022-09-13T05:16:47.439Z,54.95
2022-09-13T05:19:33.107Z,55.27
2022-09-13T05:22:19.009Z,55.15
2022-09-13T05:25:05.563Z,55.03
2022-09-13T05:27:51.309Z,55.00
2022-09-13T05:30:41.654Z,55.04
2022-09-13T05:33:31.394Z,54.94
2022-09-13T05:36:18.313Z,54.98
2022-09-13T05:56:26.553Z,59.38
2022-09-13T05:59:14.261Z,59.90
2022-09-13T06:02:00.478Z,58.82
2022-09-13T06:04:46.724Z,58.86
2022-09-13T06:07:32.438Z,57.90
2022-09-13T06:10:18.500Z,57.54
2022-09-13T06:13:04.667Z,57.34
2022-09-13T06:15:51.151Z,56.72
2022-09-13T06:18:37.470Z,57.03
2022-09-13T06:21:27.139Z,56.33
2022-09-13T06:24:14.943Z,56.35
2022-09-13T06:27:00.989Z,56.38
2022-09-13T06:29:46.948Z,56.41
2022-09-13T06:32:32.971Z,56.15
2022-09-13T06:35:18.957Z,56.80
2022-09-13T06:38:04.822Z,56.44
2022-09-13T06:41:09.764Z,56.67
2022-09-13T06:43:58.497Z,56.03
2022-09-13T06:46:44.819Z,56.06
2022-09-13T06:49:31.681Z,55.98
2022-09-13T06:52:17.482Z,55.97
2022-09-13T06:55:03.700Z,55.95
2022-09-13T06:57:49.369Z,55.70
2022-09-13T07:00:35.417Z,55.74
2022-09-13T07:03:21.401Z,55.62
2022-09-13T07:06:12.580Z,55.71
2022-09-13T07:08:59.919Z,55.58
2022-09-13T07:11:47.191Z,55.68
2022-09-13T07:14:33.448Z,55.84
2022-09-13T07:17:19.368Z,56.02
2022-09-13T07:20:07.261Z,55.66
2022-09-13T07:22:53.510Z,56.16
2022-09-13T07:25:39.554Z,56.59
2022-09-13T07:28:27.472Z,56.25
2022-09-13T07:31:18.475Z,56.01
2022-09-13T07:34:08.360Z,55.99
2022-09-13T07:36:54.427Z,56.01
2022-09-13T07:39:40.279Z,55.45
2022-09-13T07:42:26.638Z,55.84
2022-09-13T07:45:12.941Z,55.22
2022-09-13T07:47:59.284Z,54.76
2022-09-13T07:50:45.263Z,54.97
2022-09-13T07:53:31.991Z,54.56
2022-09-13T07:56:20.182Z,54.62
2022-09-13T07:59:10.793Z,54.23
2022-09-13T08:01:57.316Z,54.22
2022-09-13T08:04:43.138Z,54.24
2022-09-13T08:07:29.042Z,53.97
2022-09-13T08:10:15.003Z,53.75
2022-09-13T08:13:01.534Z,53.78
2022-09-13T08:15:48.797Z,53.78
2022-09-13T08:18:34.995Z,53.22
2022-09-13T08:21:21.244Z,53.63
2022-09-13T08:24:08.876Z,53.29
2022-09-13T08:26:55.506Z,52.97
2022-09-13T08:29:41.626Z,52.77
2022-09-13T08:32:27.649Z,52.61
2022-09-13T08:35:13.557Z,52.66
2022-09-13T08:38:00.215Z,52.65
2022-09-13T08:40:51.342Z,52.06
2022-09-13T08:43:43.290Z,52.30
2022-09-13T08:46:36.668Z,52.16
2022-09-13T08:49:29.437Z,52.27
2022-09-13T08:52:19.873Z,52.08
2022-09-13T08:55:38.436Z,52.10
2022-09-13T08:58:41.407Z,51.52
2022-09-13T09:01:43.037Z,51.81
2022-09-13T09:04:33.912Z,51.69
2022-09-13T09:07:27.508Z,51.19
2022-09-13T09:10:21.099Z,51.00
2022-09-13T09:13:29.923Z,50.92
2022-09-13T09:16:25.257Z,50.37
2022-09-13T09:19:28.431Z,50.59
2022-09-13T09:22:21.937Z,50.50
2022-09-13T09:25:11.800Z,50.00
2022-09-13T09:27:58.575Z,50.01
2022-09-13T09:31:05.347Z,49.85
2022-09-13T09:34:00.616Z,49.60
2022-09-13T09:37:16.881Z,49.48
2022-09-13T09:40:08.139Z,49.73
2022-09-13T09:42:54.807Z,48.42
2022-09-13T09:45:42.926Z,48.75
2022-09-13T09:48:33.796Z,48.78
2022-09-13T09:51:20.175Z,48.70
2022-09-13T09:54:06.351Z,48.72
2022-09-13T09:56:54.981Z,48.39
2022-09-13T09:59:40.922Z,48.45
2022-09-13T10:02:26.983Z,48.46
2022-09-13T10:05:19.783Z,47.82
2022-09-13T10:08:07.291Z,47.67
2022-09-13T10:10:55.549Z,47.87
2022-09-13T10:14:01.081Z,47.79
2022-09-13T10:16:46.946Z,47.88
2022-09-13T10:19:33.235Z,47.43
2022-09-13T10:22:19.185Z,47.55
2022-09-13T10:25:27.251Z,47.33
2022-09-13T10:28:17.120Z,47.22
2022-09-13T10:31:16.307Z,46.89
2022-09-13T10:34:12.951Z,46.75
2022-09-13T10:37:30.797Z,40.94
2022-09-13T10:40:38.549Z,45.59
2022-09-13T10:43:25.020Z,45.80
2022-09-13T10:46:14.967Z,45.12
2022-09-13T10:49:01.332Z,45.71
2022-09-13T10:51:47.476Z,45.75
2022-09-13T10:54:33.230Z,45.84
2022-09-13T10:57:36.637Z,45.37
2022-09-13T11:00:31.109Z,45.17
2022-09-13T11:03:38.945Z,44.91
2022-09-13T11:06:33.176Z,44.74
2022-09-13T11:09:25.789Z,44.69
2022-09-13T11:12:37.086Z,44.56
2022-09-13T11:15:28.714Z,44.84
2022-09-13T11:18:38.896Z,44.36
2022-09-13T11:21:33.408Z,44.25
2022-09-13T11:24:22.094Z,43.97
2022-09-13T11:27:34.731Z,44.02
2022-09-13T11:30:27.765Z,43.98
2022-09-13T11:33:21.642Z,43.65
2022-09-13T11:36:23.774Z,43.87
2022-09-13T11:39:30.838Z,43.68
2022-09-13T11:42:26.028Z,43.45
2022-09-13T11:45:35.444Z,43.22
2022-09-13T11:48:34.816Z,43.33
2022-09-13T11:51:25.283Z,43.15
2022-09-13T11:54:52.708Z,43.14
2022-09-13T11:57:42.373Z,42.39
2022-09-13T12:00:44.992Z,42.25
2022-09-13T12:03:36.845Z,42.20
2022-09-13T12:06:28.340Z,38.85
2022-09-13T12:09:25.152Z,40.21
2022-09-13T12:12:13.526Z,41.55
2022-09-13T12:15:17.394Z,41.74
2022-09-13T12:18:32.706Z,40.84
2022-09-13T12:21:25.752Z,40.51
2022-09-13T12:24:16.984Z,40.55
2022-09-13T12:27:23.113Z,41.12
2022-09-13T12:30:21.736Z,41.17
2022-09-13T12:33:08.090Z,40.92
2022-09-13T12:36:17.605Z,41.18
2022-09-13T12:39:50.341Z,39.37
2022-09-13T12:43:00.516Z,39.93
2022-09-13T12:46:02.411Z,40.49
2022-09-13T12:49:03.462Z,40.51
2022-09-13T12:52:25.390Z,41.30
2022-09-13T12:55:46.652Z,40.53
2022-09-13T12:58:39.377Z,40.38
2022-09-13T13:01:27.191Z,40.63
2022-09-13T13:04:24.396Z,40.33
2022-09-13T13:07:19.699Z,40.00
2022-09-13T13:10:06.633Z,40.25
2022-09-13T13:12:53.085Z,40.16
2022-09-13T13:15:39.201Z,39.71
2022-09-13T13:18:30.673Z,39.99
2022-09-13T13:21:24.459Z,39.91
2022-09-13T13:24:16.760Z,39.63
2022-09-13T13:27:32.652Z,40.04
2022-09-13T13:30:41.109Z,39.90
2022-09-13T13:33:29.229Z,39.57
2022-09-13T13:36:27.805Z,39.56
2022-09-13T13:39:34.048Z,36.44
2022-09-13T13:42:25.468Z,39.65
2022-09-13T13:45:21.612Z,39.35
2022-09-13T13:48:15.555Z,38.96
2022-09-13T13:51:11.824Z,39.09
2022-09-13T13:54:01.132Z,38.93
2022-09-13T13:56:49.235Z,38.36
2022-09-13T13:59:36.956Z,38.63
2022-09-13T14:02:30.703Z,38.37
2022-09-13T14:05:44.757Z,38.12
2022-09-13T14:12:00.863Z,37.32
2022-09-13T14:15:05.368Z,37.12
2022-09-13T14:18:15.851Z,36.94
2022-09-13T14:21:18.437Z,36.46
2022-09-13T14:24:10.112Z,36.64
2022-09-13T14:27:03.980Z,36.58
2022-09-13T14:29:54.888Z,36.61
2022-09-13T14:32:48.650Z,36.44
2022-09-13T14:35:39.045Z,36.38
2022-09-13T14:38:31.116Z,36.31
2022-09-13T14:41:19.863Z,36.42
2022-09-13T14:44:35.457Z,36.13
2022-09-13T14:47:32.541Z,35.86
2022-09-13T14:50:22.634Z,35.89
2022-09-13T14:53:15.006Z,35.86
2022-09-13T14:56:06.550Z,36.58
2022-09-13T14:58:56.041Z,36.03
2022-09-13T15:01:41.953Z,36.00
2022-09-13T15:04:28.565Z,35.90
2022-09-13T15:07:23.754Z,35.40
2022-09-13T15:10:12.994Z,35.61
2022-09-13T15:13:05.244Z,35.59
2022-09-13T15:15:51.791Z,35.70
2022-09-13T15:18:37.693Z,35.84
2022-09-13T15:21:23.600Z,36.15
2022-09-13T15:24:22.732Z,35.58
2022-09-13T15:27:21.736Z,35.42
2022-09-13T15:30:21.185Z,35.31
2022-09-13T15:33:22.725Z,35.67
2022-09-13T15:36:21.239Z,35.58
2022-09-13T15:39:10.234Z,35.67
2022-09-13T15:42:00.262Z,35.58
2022-09-13T15:44:46.694Z,35.41
2022-09-13T15:47:32.785Z,35.87
2022-09-13T15:50:38.672Z,35.53
2022-09-13T15:53:24.580Z,35.54
2022-09-13T15:56:18.659Z,35.33
2022-09-13T15:59:04.897Z,35.69
2022-09-13T16:01:52.462Z,35.48
2022-09-13T16:04:38.503Z,35.30
2022-09-13T16:07:26.454Z,35.56
2022-09-13T16:10:22.978Z,35.28
2022-09-13T16:13:09.068Z,35.36
2022-09-13T16:15:58.042Z,35.16
2022-09-13T16:18:47.501Z,35.48
2022-09-13T16:21:33.666Z,35.39
2022-09-13T16:24:20.169Z,35.56
2022-09-13T16:27:06.497Z,35.66
2022-09-13T16:29:53.573Z,35.69
2022-09-13T16:32:39.662Z,35.90
2022-09-13T16:35:32.144Z,35.79
2022-09-13T16:38:18.342Z,36.02
2022-09-13T16:41:08.141Z,35.81
2022-09-13T16:43:55.025Z,36.04
2022-09-13T16:46:41.445Z,36.20
2022-09-13T16:49:27.671Z,36.16
2022-09-13T16:52:13.628Z,36.42
2022-09-13T16:55:00.146Z,36.61
2022-09-13T16:57:48.255Z,36.45
2022-09-13T17:00:34.577Z,36.71
2022-09-13T17:03:20.559Z,36.89
2022-09-13T17:06:08.777Z,36.90
2022-09-13T17:09:03.427Z,37.05
2022-09-13T17:11:49.907Z,37.31
2022-09-13T17:14:36.352Z,36.94
2022-09-13T17:17:22.414Z,37.37
2022-09-13T17:20:10.778Z,37.29
2022-09-13T17:22:57.167Z,37.55
2022-09-13T17:25:46.887Z,37.59
2022-09-13T17:28:35.410Z,37.81
2022-09-13T17:31:21.450Z,37.89
2022-09-13T17:34:07.950Z,38.03
2022-09-13T17:36:54.710Z,37.92
2022-09-13T17:39:40.838Z,38.15
2022-09-13T17:42:26.954Z,38.35
2022-09-13T17:45:13.371Z,38.43
2022-09-13T17:47:59.722Z,38.53
2022-09-13T17:50:45.720Z,38.48
2022-09-13T17:53:31.651Z,38.52
2022-09-13T17:56:19.545Z,38.66
2022-09-13T17:59:11.897Z,38.91
2022-09-13T18:02:00.724Z,38.96
2022-09-13T18:04:46.791Z,39.00
2022-09-13T18:07:32.825Z,39.14
2022-09-13T18:10:45.192Z,39.07
2022-09-13T18:13:25.176Z,39.50
2022-09-13T18:16:21.023Z,39.46
2022-09-13T18:19:07.675Z,39.56
2022-09-13T18:21:54.158Z,39.78
2022-09-13T18:24:40.671Z,39.83
2022-09-13T18:27:26.663Z,40.00
2022-09-13T18:30:12.763Z,40.04
2022-09-13T18:32:59.331Z,40.19
2022-09-13T18:35:45.374Z,40.37
2022-09-13T18:38:33.771Z,40.58
2022-09-13T18:41:22.201Z,40.57
2022-09-13T18:44:10.345Z,40.84
2022-09-13T18:46:58.178Z,40.68
2022-09-13T18:49:44.368Z,41.15
2022-09-13T18:52:30.323Z,40.76
2022-09-13T18:55:17.346Z,41.01
2022-09-13T18:58:04.912Z,41.35
2022-09-13T19:01:05.814Z,41.40
2022-09-13T19:03:54.274Z,41.44
2022-09-13T19:06:46.023Z,41.60
2022-09-13T19:09:34.299Z,41.84
2022-09-13T19:12:20.543Z,41.71
2022-09-13T19:15:07.446Z,41.90
2022-09-13T19:17:53.608Z,42.06
2022-09-13T19:20:39.682Z,42.22
2022-09-13T19:23:42.935Z,41.92
2022-09-13T19:26:34.429Z,42.24
2022-09-13T19:29:22.894Z,42.25
2022-09-13T19:32:08.960Z,42.35
2022-09-13T19:34:55.824Z,42.39
2022-09-13T19:41:03.173Z,42.60
2022-09-13T19:43:50.500Z,42.82
2022-09-13T19:46:38.910Z,43.03
2022-09-13T19:49:25.352Z,42.95
2022-09-13T19:52:11.747Z,43.00
2022-09-13T19:54:59.346Z,43.15
2022-09-13T19:57:45.710Z,43.08
2022-09-13T20:00:32.238Z,43.04
2022-09-13T20:03:21.561Z,43.50
2022-09-13T20:06:12.589Z,43.53
2022-09-13T20:09:00.056Z,43.48
2022-09-13T20:11:48.398Z,43.54
2022-09-13T20:14:34.773Z,43.66
2022-09-13T20:17:21.209Z,43.81
2022-09-13T20:20:07.343Z,43.86
2022-09-13T20:22:53.421Z,43.86
2022-09-13T20:25:41.903Z,43.96
2022-09-13T20:28:28.141Z,44.16
2022-09-13T20:31:15.336Z,44.10
2022-09-13T20:34:05.663Z,44.23
2022-09-13T20:36:52.049Z,44.56
2022-09-13T20:39:39.297Z,44.43
2022-09-13T20:42:25.537Z,44.57
2022-09-13T20:45:12.293Z,44.63
2022-09-13T20:47:58.214Z,44.60
2022-09-13T20:50:44.086Z,44.83
2022-09-13T20:53:30.457Z,44.79
2022-09-13T20:56:18.567Z,44.92
2022-09-13T20:59:05.168Z,45.05
2022-09-13T21:01:51.151Z,45.11
2022-09-13T21:04:37.090Z,45.16
2022-09-13T21:07:41.432Z,45.20
2022-09-13T21:10:27.647Z,45.38
2022-09-13T21:13:13.438Z,45.60
2022-09-13T21:16:07.440Z,45.54
2022-09-13T21:18:53.999Z,45.70
2022-09-13T21:21:41.812Z,45.63
2022-09-13T21:24:27.713Z,46.02
2022-09-13T21:27:13.657Z,45.83
2022-09-13T21:29:59.678Z,45.87
2022-09-13T21:32:45.573Z,45.96
2022-09-13T21:35:31.499Z,45.93
2022-09-13T21:38:17.221Z,46.07
2022-09-13T21:41:06.257Z,46.33
2022-09-13T21:43:52.542Z,46.36
2022-09-13T21:46:39.241Z,46.12
2022-09-13T21:49:25.364Z,46.41
2022-09-13T21:52:12.260Z,46.41
2022-09-13T21:54:58.197Z,46.64
2022-09-13T21:57:44.573Z,46.62
2022-09-13T22:00:30.837Z,46.50
2022-09-13T22:03:16.577Z,46.81
2022-09-13T22:06:03.979Z,46.67
2022-09-13T22:08:55.323Z,46.54
2022-09-13T22:11:43.770Z,46.89
2022-09-13T22:14:29.931Z,46.89
2022-09-13T22:17:15.787Z,47.19
2022-09-13T22:20:02.077Z,47.00
2022-09-13T22:22:48.213Z,47.04
2022-09-13T22:25:34.453Z,47.35
2022-09-13T22:28:20.385Z,47.37
2022-09-13T22:31:06.841Z,47.23
2022-09-13T22:33:55.083Z,47.47
2022-09-13T22:36:41.718Z,47.29
2022-09-13T22:39:27.904Z,47.44
2022-09-13T22:42:13.927Z,47.40
2022-09-13T22:44:59.958Z,47.60
2022-09-13T22:47:45.789Z,47.76
2022-09-13T22:50:31.817Z,47.62
2022-09-13T22:53:17.864Z,47.81
2022-09-13T22:56:11.882Z,48.05
2022-09-13T22:59:06.147Z,48.05
2022-09-13T23:01:51.864Z,47.61
2022-09-13T23:04:37.842Z,48.10
2022-09-13T23:07:23.628Z,48.15
2022-09-13T23:10:09.787Z,48.07
2022-09-13T23:12:57.758Z,48.11
2022-09-13T23:15:44.035Z,48.17
2022-09-13T23:18:31.243Z,48.12
2022-09-13T23:21:18.697Z,48.20
2022-09-13T23:24:06.558Z,48.31
2022-09-13T23:26:55.201Z,48.54
2022-09-13T23:29:41.293Z,48.63
2022-09-13T23:32:27.224Z,48.65
2022-09-13T23:35:13.117Z,48.52
2022-09-13T23:37:59.209Z,48.60
2022-09-13T23:40:45.408Z,48.57
2022-09-13T23:43:31.443Z,48.86
2022-09-13T23:46:18.362Z,48.71
2022-09-13T23:49:04.594Z,48.73
2022-09-13T23:51:51.197Z,48.87
2022-09-13T23:54:36.973Z,48.83
2022-09-13T23:57:23.208Z,48.91
